Terminal Aerodrome Forecast
Issued by NWS

Home | Current Version | Previous Version | Text Only | Print | Product List | Glossary On
Versions: 1 2 3 4 5 6 7 8 9 10 11 12 13 14 15 16 17 18 19 20 21 22 23 24 25 26 27 28 29 30 31 32 33
000
FTUS45 KPSR 242300 RRA
TAFSDL
TAF
KSDL 242345Z 2500/2524 VRB03KT P6SM OVC250
     FM250700 13006KT P6SM SCT250
     FM251700 24010KT P6SM BKN060
      TEMPO 2518/2522 24010G20KT=

USA.gov is the U.S. government's official web portal to all federal, state and local government web resources and services.